sensor_id;sensor_type;location;lat;lon;timestamp;noise_LAeq;noise_LA_min;noise_LA_max;noise_LA01;noise_LA95
17594;Laerm;8916;47.086;15.920;2023-02-28T00:00:38;49.48;48.36;50.59;;
17594;Laerm;8916;47.086;15.920;2023-02-28T00:03:08;49.50;48.37;50.45;;
17594;Laerm;8916;47.086;15.920;2023-02-28T00:05:37;49.49;48.40;50.62;;
17594;Laerm;8916;47.086;15.920;2023-02-28T00:08:07;49.50;48.36;50.57;;
17594;Laerm;8916;47.086;15.920;2023-02-28T00:10:37;49.50;48.34;50.62;;
17594;Laerm;8916;47.086;15.920;2023-02-28T00:13:07;49.49;48.26;50.72;;
17594;Laerm;8916;47.086;15.920;2023-02-28T00:15:37;49.49;48.39;50.72;;
17594;Laerm;8916;47.086;15.920;2023-02-28T00:18:06;49.50;48.29;50.60;;
17594;Laerm;8916;47.086;15.920;2023-02-28T00:20:35;49.50;48.48;50.50;;
17594;Laerm;8916;47.086;15.920;2023-02-28T00:23:08;49.51;48.52;50.58;;
17594;Laerm;8916;47.086;15.920;2023-02-28T00:25:37;49.51;48.45;50.58;;
17594;Laerm;8916;47.086;15.920;2023-02-28T00:28:06;49.50;48.51;50.53;;
17594;Laerm;8916;47.086;15.920;2023-02-28T00:30:35;49.51;48.36;50.62;;
17594;Laerm;8916;47.086;15.920;2023-02-28T00:33:05;49.51;48.46;50.72;;
17594;Laerm;8916;47.086;15.920;2023-02-28T00:35:34;49.50;48.37;50.56;;
17594;Laerm;8916;47.086;15.920;2023-02-28T00:38:03;49.50;48.45;50.84;;
17594;Laerm;8916;47.086;15.920;2023-02-28T00:40:36;49.51;48.42;50.54;;
17594;Laerm;8916;47.086;15.920;2023-02-28T00:43:05;49.51;48.45;50.59;;
17594;Laerm;8916;47.086;15.920;2023-02-28T00:45:34;49.51;48.45;50.71;;
17594;Laerm;8916;47.086;15.920;2023-02-28T00:48:04;49.52;48.39;50.53;;
17594;Laerm;8916;47.086;15.920;2023-02-28T00:50:33;49.51;48.43;50.63;;
17594;Laerm;8916;47.086;15.920;2023-02-28T00:53:02;49.51;48.29;50.89;;
17594;Laerm;8916;47.086;15.920;2023-02-28T00:55:31;49.52;48.29;50.79;;
17594;Laerm;8916;47.086;15.920;2023-02-28T00:58:06;49.51;48.25;50.64;;
17594;Laerm;8916;47.086;15.920;2023-02-28T01:00:35;49.51;48.45;50.63;;
17594;Laerm;8916;47.086;15.920;2023-02-28T01:03:04;49.51;48.28;50.56;;
17594;Laerm;8916;47.086;15.920;2023-02-28T01:05:33;49.53;48.57;50.73;;
17594;Laerm;8916;47.086;15.920;2023-02-28T01:08:02;49.51;48.31;50.56;;
17594;Laerm;8916;47.086;15.920;2023-02-28T01:10:31;49.52;48.53;50.69;;
17594;Laerm;8916;47.086;15.920;2023-02-28T01:13:00;49.51;48.42;50.70;;
17594;Laerm;8916;47.086;15.920;2023-02-28T01:15:31;49.51;48.46;50.69;;
17594;Laerm;8916;47.086;15.920;2023-02-28T01:18:00;49.50;48.45;50.44;;
17594;Laerm;8916;47.086;15.920;2023-02-28T01:20:31;49.51;48.45;50.54;;
17594;Laerm;8916;47.086;15.920;2023-02-28T01:23:01;49.51;48.42;50.67;;
17594;Laerm;8916;47.086;15.920;2023-02-28T01:25:30;49.51;48.23;50.70;;
17594;Laerm;8916;47.086;15.920;2023-02-28T01:27:59;49.52;48.52;50.56;;
17594;Laerm;8916;47.086;15.920;2023-02-28T01:30:28;49.50;48.52;50.52;;
17594;Laerm;8916;47.086;15.920;2023-02-28T01:32:59;49.50;48.52;50.62;;
17594;Laerm;8916;47.086;15.920;2023-02-28T01:35:31;49.50;48.03;50.70;;
17594;Laerm;8916;47.086;15.920;2023-02-28T01:38:03;49.50;48.43;50.68;;
17594;Laerm;8916;47.086;15.920;2023-02-28T01:40:48;49.50;48.37;50.59;;
17594;Laerm;8916;47.086;15.920;2023-02-28T01:43:22;49.50;48.43;50.65;;
17594;Laerm;8916;47.086;15.920;2023-02-28T01:45:53;49.50;48.54;50.71;;
17594;Laerm;8916;47.086;15.920;2023-02-28T01:48:27;49.49;48.34;50.77;;
17594;Laerm;8916;47.086;15.920;2023-02-28T01:51:00;49.50;48.18;50.70;;
17594;Laerm;8916;47.086;15.920;2023-02-28T01:53:34;49.50;48.31;50.44;;
17594;Laerm;8916;47.086;15.920;2023-02-28T01:56:07;49.49;48.51;50.78;;
17594;Laerm;8916;47.086;15.920;2023-02-28T01:58:38;49.49;48.34;50.69;;
17594;Laerm;8916;47.086;15.920;2023-02-28T02:01:07;49.49;48.46;50.57;;
17594;Laerm;8916;47.086;15.920;2023-02-28T02:03:37;49.48;48.45;50.63;;
17594;Laerm;8916;47.086;15.920;2023-02-28T02:06:07;49.50;48.39;50.58;;
17594;Laerm;8916;47.086;15.920;2023-02-28T02:08:38;49.50;48.60;50.56;;
17594;Laerm;8916;47.086;15.920;2023-02-28T02:11:09;49.49;48.34;50.55;;
17594;Laerm;8916;47.086;15.920;2023-02-28T02:14:17;49.49;48.40;50.73;;
17594;Laerm;8916;47.086;15.920;2023-02-28T02:17:04;49.48;48.43;50.52;;
17594;Laerm;8916;47.086;15.920;2023-02-28T02:20:36;49.49;48.48;50.73;;
17594;Laerm;8916;47.086;15.920;2023-02-28T02:29:52;49.49;48.39;50.49;;
17594;Laerm;8916;47.086;15.920;2023-02-28T02:33:10;49.48;48.28;50.63;;
17594;Laerm;8916;47.086;15.920;2023-02-28T02:35:53;49.48;48.39;50.55;;
17594;Laerm;8916;47.086;15.920;2023-02-28T02:38:31;49.48;48.21;50.58;;
17594;Laerm;8916;47.086;15.920;2023-02-28T02:41:10;49.49;48.43;50.78;;
17594;Laerm;8916;47.086;15.920;2023-02-28T02:43:47;49.48;48.39;50.48;;
17594;Laerm;8916;47.086;15.920;2023-02-28T02:46:23;49.48;48.37;50.60;;
17594;Laerm;8916;47.086;15.920;2023-02-28T02:48:55;49.48;48.32;50.52;;
17594;Laerm;8916;47.086;15.920;2023-02-28T02:51:27;49.48;48.32;50.60;;
17594;Laerm;8916;47.086;15.920;2023-02-28T02:54:00;49.50;48.34;50.47;;
17594;Laerm;8916;47.086;15.920;2023-02-28T02:56:32;49.49;48.43;50.67;;
17594;Laerm;8916;47.086;15.920;2023-02-28T02:59:07;49.47;48.42;50.56;;
17594;Laerm;8916;47.086;15.920;2023-02-28T03:01:38;49.48;48.45;50.57;;
17594;Laerm;8916;47.086;15.920;2023-02-28T03:04:12;49.49;48.60;50.68;;
17594;Laerm;8916;47.086;15.920;2023-02-28T03:06:44;49.48;48.51;50.72;;
17594;Laerm;8916;47.086;15.920;2023-02-28T03:09:13;49.48;48.37;50.56;;
17594;Laerm;8916;47.086;15.920;2023-02-28T03:11:42;49.49;48.39;50.52;;
17594;Laerm;8916;47.086;15.920;2023-02-28T03:14:28;49.47;48.39;50.45;;
17594;Laerm;8916;47.086;15.920;2023-02-28T03:17:35;49.48;48.29;50.56;;
17594;Laerm;8916;47.086;15.920;2023-02-28T03:20:17;49.48;48.34;50.81;;
17594;Laerm;8916;47.086;15.920;2023-02-28T03:23:02;49.48;48.32;50.56;;
17594;Laerm;8916;47.086;15.920;2023-02-28T03:25:43;49.48;48.25;50.85;;
17594;Laerm;8916;47.086;15.920;2023-02-28T03:28:22;49.48;48.32;50.82;;
17594;Laerm;8916;47.086;15.920;2023-02-28T03:30:59;49.47;48.32;50.58;;
17594;Laerm;8916;47.086;15.920;2023-02-28T03:33:33;49.47;48.31;50.55;;
17594;Laerm;8916;47.086;15.920;2023-02-28T03:36:08;49.47;48.43;50.67;;
17594;Laerm;8916;47.086;15.920;2023-02-28T03:38:45;49.47;48.32;50.62;;
17594;Laerm;8916;47.086;15.920;2023-02-28T03:41:21;49.47;48.25;50.56;;
17594;Laerm;8916;47.086;15.920;2023-02-28T03:43:55;49.48;48.37;50.60;;
17594;Laerm;8916;47.086;15.920;2023-02-28T03:46:28;49.48;48.34;50.56;;
17594;Laerm;8916;47.086;15.920;2023-02-28T03:49:05;49.47;48.23;50.63;;
17594;Laerm;8916;47.086;15.920;2023-02-28T03:51:38;49.47;48.45;50.49;;
17594;Laerm;8916;47.086;15.920;2023-02-28T03:54:15;49.47;48.37;50.59;;
17594;Laerm;8916;47.086;15.920;2023-02-28T03:56:51;49.47;48.34;50.43;;
17594;Laerm;8916;47.086;15.920;2023-02-28T03:59:28;49.47;48.40;50.75;;
17594;Laerm;8916;47.086;15.920;2023-02-28T04:01:58;49.47;48.34;50.45;;
17594;Laerm;8916;47.086;15.920;2023-02-28T04:04:27;49.47;48.36;50.67;;
17594;Laerm;8916;47.086;15.920;2023-02-28T04:07:02;49.46;48.46;50.84;;
17594;Laerm;8916;47.086;15.920;2023-02-28T04:09:33;49.47;48.43;50.58;;
17594;Laerm;8916;47.086;15.920;2023-02-28T04:12:02;49.47;48.36;50.83;;
17594;Laerm;8916;47.086;15.920;2023-02-28T04:14:31;49.48;48.37;50.61;;
17594;Laerm;8916;47.086;15.920;2023-02-28T04:17:00;49.47;48.21;50.61;;
17594;Laerm;8916;47.086;15.920;2023-02-28T04:19:29;49.47;48.42;50.45;;
17594;Laerm;8916;47.086;15.920;2023-02-28T04:21:58;49.47;48.21;50.56;;
17594;Laerm;8916;47.086;15.920;2023-02-28T04:24:28;49.48;48.29;50.56;;
17594;Laerm;8916;47.086;15.920;2023-02-28T04:26:59;49.47;48.29;50.60;;
17594;Laerm;8916;47.086;15.920;2023-02-28T04:29:30;49.46;48.13;50.54;;
17594;Laerm;8916;47.086;15.920;2023-02-28T04:32:01;49.48;48.28;50.63;;
17594;Laerm;8916;47.086;15.920;2023-02-28T04:34:32;49.46;48.31;50.70;;
17594;Laerm;8916;47.086;15.920;2023-02-28T04:37:01;49.46;48.32;50.62;;
17594;Laerm;8916;47.086;15.920;2023-02-28T04:39:41;49.47;48.16;50.52;;
17594;Laerm;8916;47.086;15.920;2023-02-28T04:42:12;49.46;48.29;50.56;;
17594;Laerm;8916;47.086;15.920;2023-02-28T04:44:42;49.47;48.39;50.47;;
17594;Laerm;8916;47.086;15.920;2023-02-28T04:47:11;49.46;48.23;50.55;;
17594;Laerm;8916;47.086;15.920;2023-02-28T04:49:40;49.46;48.46;50.71;;
17594;Laerm;8916;47.086;15.920;2023-02-28T04:52:10;49.46;48.45;50.55;;
17594;Laerm;8916;47.086;15.920;2023-02-28T04:54:40;49.46;48.21;50.63;;
17594;Laerm;8916;47.086;15.920;2023-02-28T04:57:09;49.46;48.23;50.44;;
17594;Laerm;8916;47.086;15.920;2023-02-28T04:59:40;49.46;48.28;50.57;;
17594;Laerm;8916;47.086;15.920;2023-02-28T05:02:09;49.45;48.39;50.53;;
17594;Laerm;8916;47.086;15.920;2023-02-28T05:04:38;49.46;48.45;50.73;;
17594;Laerm;8916;47.086;15.920;2023-02-28T05:07:07;49.45;48.43;50.77;;
17594;Laerm;8916;47.086;15.920;2023-02-28T05:09:37;49.45;48.31;50.58;;
17594;Laerm;8916;47.086;15.920;2023-02-28T05:12:07;49.45;48.28;50.58;;
17594;Laerm;8916;47.086;15.920;2023-02-28T05:14:37;49.46;48.02;50.62;;
17594;Laerm;8916;47.086;15.920;2023-02-28T05:17:08;49.46;48.26;50.42;;
17594;Laerm;8916;47.086;15.920;2023-02-28T05:19:38;49.45;48.31;50.81;;
17594;Laerm;8916;47.086;15.920;2023-02-28T05:22:13;49.45;48.40;50.46;;
17594;Laerm;8916;47.086;15.920;2023-02-28T05:24:43;49.45;48.43;50.66;;
17594;Laerm;8916;47.086;15.920;2023-02-28T05:27:12;49.45;48.43;50.58;;
17594;Laerm;8916;47.086;15.920;2023-02-28T05:29:41;49.45;48.48;50.52;;
17594;Laerm;8916;47.086;15.920;2023-02-28T05:32:15;49.45;48.42;50.48;;
17594;Laerm;8916;47.086;15.920;2023-02-28T05:34:44;49.46;48.46;50.62;;
17594;Laerm;8916;47.086;15.920;2023-02-28T05:37:14;49.44;48.37;50.63;;
17594;Laerm;8916;47.086;15.920;2023-02-28T05:39:43;49.46;48.40;50.59;;
17594;Laerm;8916;47.086;15.920;2023-02-28T05:42:13;49.46;48.28;50.49;;
17594;Laerm;8916;47.086;15.920;2023-02-28T05:44:44;49.46;48.25;50.73;;
17594;Laerm;8916;47.086;15.920;2023-02-28T05:47:15;49.46;48.05;50.61;;
17594;Laerm;8916;47.086;15.920;2023-02-28T05:49:44;49.45;48.25;50.64;;
17594;Laerm;8916;47.086;15.920;2023-02-28T05:52:14;49.45;48.32;50.56;;
17594;Laerm;8916;47.086;15.920;2023-02-28T05:54:43;49.44;48.40;50.57;;
17594;Laerm;8916;47.086;15.920;2023-02-28T05:57:12;49.44;48.31;50.65;;
17594;Laerm;8916;47.086;15.920;2023-02-28T05:59:51;49.44;48.29;50.70;;
17594;Laerm;8916;47.086;15.920;2023-02-28T06:02:21;49.44;48.29;50.56;;
17594;Laerm;8916;47.086;15.920;2023-02-28T06:04:50;49.45;48.42;50.55;;
17594;Laerm;8916;47.086;15.920;2023-02-28T06:07:19;49.44;48.25;50.62;;
17594;Laerm;8916;47.086;15.920;2023-02-28T06:09:52;49.44;48.21;50.44;;
17594;Laerm;8916;47.086;15.920;2023-02-28T06:12:22;49.44;48.25;50.45;;
17594;Laerm;8916;47.086;15.920;2023-02-28T06:14:51;49.44;48.29;50.50;;
17594;Laerm;8916;47.086;15.920;2023-02-28T06:17:23;49.43;48.15;50.57;;
17594;Laerm;8916;47.086;15.920;2023-02-28T06:19:53;49.44;48.37;50.41;;
17594;Laerm;8916;47.086;15.920;2023-02-28T06:22:22;49.44;48.21;50.52;;
17594;Laerm;8916;47.086;15.920;2023-02-28T06:24:51;49.44;48.48;50.55;;
17594;Laerm;8916;47.086;15.920;2023-02-28T06:27:20;49.44;48.21;50.50;;
17594;Laerm;8916;47.086;15.920;2023-02-28T06:29:53;49.43;48.32;50.49;;
17594;Laerm;8916;47.086;15.920;2023-02-28T06:32:25;49.44;48.20;50.68;;
17594;Laerm;8916;47.086;15.920;2023-02-28T06:34:54;49.43;48.26;50.43;;
17594;Laerm;8916;47.086;15.920;2023-02-28T06:37:25;49.43;48.36;50.71;;
17594;Laerm;8916;47.086;15.920;2023-02-28T06:39:54;49.43;48.28;50.62;;
17594;Laerm;8916;47.086;15.920;2023-02-28T06:42:25;49.42;48.31;50.74;;
17594;Laerm;8916;47.086;15.920;2023-02-28T06:44:56;49.42;48.39;50.60;;
17594;Laerm;8916;47.086;15.920;2023-02-28T06:47:27;49.43;48.40;50.53;;
17594;Laerm;8916;47.086;15.920;2023-02-28T06:49:56;49.42;48.28;50.45;;
17594;Laerm;8916;47.086;15.920;2023-02-28T06:52:25;49.43;48.23;50.41;;
17594;Laerm;8916;47.086;15.920;2023-02-28T06:54:54;49.41;48.42;50.81;;
17594;Laerm;8916;47.086;15.920;2023-02-28T06:57:28;49.42;48.34;50.38;;
17594;Laerm;8916;47.086;15.920;2023-02-28T06:59:59;49.43;48.42;50.57;;
17594;Laerm;8916;47.086;15.920;2023-02-28T07:02:31;49.42;48.29;50.59;;
17594;Laerm;8916;47.086;15.920;2023-02-28T07:05:00;49.42;48.29;50.39;;
17594;Laerm;8916;47.086;15.920;2023-02-28T07:07:30;49.42;48.28;50.37;;
17594;Laerm;8916;47.086;15.920;2023-02-28T07:09:59;49.42;48.31;50.49;;
17594;Laerm;8916;47.086;15.920;2023-02-28T07:12:28;49.42;48.29;50.55;;
17594;Laerm;8916;47.086;15.920;2023-02-28T07:14:57;49.42;48.29;50.42;;
17594;Laerm;8916;47.086;15.920;2023-02-28T07:17:26;49.42;48.40;50.48;;
17594;Laerm;8916;47.086;15.920;2023-02-28T07:19:57;49.42;48.23;50.49;;
17594;Laerm;8916;47.086;15.920;2023-02-28T07:22:26;49.42;48.26;50.61;;
17594;Laerm;8916;47.086;15.920;2023-02-28T07:24:56;49.41;48.13;50.60;;
17594;Laerm;8916;47.086;15.920;2023-02-28T07:27:25;49.41;48.28;50.68;;
17594;Laerm;8916;47.086;15.920;2023-02-28T07:29:54;49.41;48.36;50.49;;
17594;Laerm;8916;47.086;15.920;2023-02-28T07:32:23;49.41;48.40;50.95;;
17594;Laerm;8916;47.086;15.920;2023-02-28T07:34:52;49.41;48.21;50.51;;
17594;Laerm;8916;47.086;15.920;2023-02-28T07:37:23;49.40;48.15;50.38;;
17594;Laerm;8916;47.086;15.920;2023-02-28T07:39:52;49.40;48.34;50.47;;
17594;Laerm;8916;47.086;15.920;2023-02-28T07:42:21;49.41;48.31;50.39;;
17594;Laerm;8916;47.086;15.920;2023-02-28T07:44:52;49.41;47.91;50.82;;
17594;Laerm;8916;47.086;15.920;2023-02-28T07:47:21;49.40;48.21;50.58;;
17594;Laerm;8916;47.086;15.920;2023-02-28T07:49:52;49.40;48.07;50.47;;
17594;Laerm;8916;47.086;15.920;2023-02-28T07:52:23;49.40;48.25;50.39;;
17594;Laerm;8916;47.086;15.920;2023-02-28T07:54:52;49.40;48.32;50.65;;
17594;Laerm;8916;47.086;15.920;2023-02-28T07:57:21;49.40;48.42;50.46;;
17594;Laerm;8916;47.086;15.920;2023-02-28T07:59:50;49.41;48.39;50.41;;
17594;Laerm;8916;47.086;15.920;2023-02-28T08:02:19;49.40;48.12;50.44;;
17594;Laerm;8916;47.086;15.920;2023-02-28T08:04:48;49.39;48.31;50.53;;
17594;Laerm;8916;47.086;15.920;2023-02-28T08:07:18;49.40;48.29;50.50;;
17594;Laerm;8916;47.086;15.920;2023-02-28T08:09:48;49.40;48.37;50.41;;
17594;Laerm;8916;47.086;15.920;2023-02-28T08:12:17;49.41;48.23;50.50;;
17594;Laerm;8916;47.086;15.920;2023-02-28T08:14:47;49.40;48.36;50.47;;
17594;Laerm;8916;47.086;15.920;2023-02-28T08:17:16;49.39;48.28;50.48;;
17594;Laerm;8916;47.086;15.920;2023-02-28T08:19:45;49.41;48.40;50.44;;
17594;Laerm;8916;47.086;15.920;2023-02-28T08:22:14;49.40;48.40;50.43;;
17594;Laerm;8916;47.086;15.920;2023-02-28T08:24:44;49.39;48.28;50.44;;
17594;Laerm;8916;47.086;15.920;2023-02-28T08:27:14;49.38;48.10;50.50;;
17594;Laerm;8916;47.086;15.920;2023-02-28T08:29:43;49.39;48.29;50.45;;
17594;Laerm;8916;47.086;15.920;2023-02-28T08:32:13;49.40;48.29;50.71;;
17594;Laerm;8916;47.086;15.920;2023-02-28T08:34:56;49.39;48.23;50.64;;
17594;Laerm;8916;47.086;15.920;2023-02-28T08:37:25;49.39;48.20;50.55;;
17594;Laerm;8916;47.086;15.920;2023-02-28T08:39:54;49.40;48.21;50.74;;
17594;Laerm;8916;47.086;15.920;2023-02-28T08:42:25;49.39;48.15;50.57;;
17594;Laerm;8916;47.086;15.920;2023-02-28T08:44:54;49.39;48.18;50.42;;
17594;Laerm;8916;47.086;15.920;2023-02-28T08:47:24;49.39;48.37;50.57;;
17594;Laerm;8916;47.086;15.920;2023-02-28T08:49:53;49.39;48.40;50.42;;
17594;Laerm;8916;47.086;15.920;2023-02-28T08:52:22;49.38;47.90;50.56;;
17594;Laerm;8916;47.086;15.920;2023-02-28T08:54:51;49.38;48.31;50.52;;
17594;Laerm;8916;47.086;15.920;2023-02-28T08:57:20;49.39;48.39;50.48;;
17594;Laerm;8916;47.086;15.920;2023-02-28T08:59:50;49.38;48.25;50.54;;
17594;Laerm;8916;47.086;15.920;2023-02-28T09:02:19;49.38;48.25;50.45;;
17594;Laerm;8916;47.086;15.920;2023-02-28T09:04:48;49.37;48.32;50.48;;
17594;Laerm;8916;47.086;15.920;2023-02-28T09:07:17;49.38;48.28;50.54;;
17594;Laerm;8916;47.086;15.920;2023-02-28T09:09:46;49.38;47.98;50.46;;
17594;Laerm;8916;47.086;15.920;2023-02-28T09:12:23;49.37;48.20;50.38;;
17594;Laerm;8916;47.086;15.920;2023-02-28T09:14:56;49.37;48.20;50.63;;
17594;Laerm;8916;47.086;15.920;2023-02-28T09:17:25;49.36;48.36;50.44;;
17594;Laerm;8916;47.086;15.920;2023-02-28T09:19:57;49.37;48.16;50.45;;
17594;Laerm;8916;47.086;15.920;2023-02-28T09:22:26;49.37;48.23;50.46;;
17594;Laerm;8916;47.086;15.920;2023-02-28T09:24:56;49.36;48.39;50.40;;
17594;Laerm;8916;47.086;15.920;2023-02-28T09:27:25;49.38;48.15;50.46;;
17594;Laerm;8916;47.086;15.920;2023-02-28T09:29:55;49.36;48.15;50.47;;
17594;Laerm;8916;47.086;15.920;2023-02-28T09:32:24;49.36;48.18;50.32;;
17594;Laerm;8916;47.086;15.920;2023-02-28T09:34:54;49.36;48.28;50.53;;
17594;Laerm;8916;47.086;15.920;2023-02-28T09:37:23;49.35;48.16;50.44;;
17594;Laerm;8916;47.086;15.920;2023-02-28T09:39:54;49.36;48.34;50.64;;
17594;Laerm;8916;47.086;15.920;2023-02-28T09:42:30;49.38;48.15;50.36;;
17594;Laerm;8916;47.086;15.920;2023-02-28T09:45:10;49.37;48.23;50.51;;
17594;Laerm;8916;47.086;15.920;2023-02-28T09:47:44;49.36;48.37;50.61;;
17594;Laerm;8916;47.086;15.920;2023-02-28T09:50:28;49.37;48.36;50.64;;
17594;Laerm;8916;47.086;15.920;2023-02-28T09:53:06;49.36;48.23;50.50;;
17594;Laerm;8916;47.086;15.920;2023-02-28T09:55:42;49.37;48.39;50.39;;
17594;Laerm;8916;47.086;15.920;2023-02-28T09:58:19;49.35;48.25;50.47;;
17594;Laerm;8916;47.086;15.920;2023-02-28T10:00:58;49.36;48.20;50.46;;
17594;Laerm;8916;47.086;15.920;2023-02-28T10:03:33;49.36;48.28;50.68;;
17594;Laerm;8916;47.086;15.920;2023-02-28T10:06:11;49.35;48.37;50.40;;
17594;Laerm;8916;47.086;15.920;2023-02-28T10:08:50;49.35;47.96;50.67;;
17594;Laerm;8916;47.086;15.920;2023-02-28T10:11:21;49.34;48.37;50.76;;
17594;Laerm;8916;47.086;15.920;2023-02-28T10:13:54;49.32;48.02;50.58;;
17594;Laerm;8916;47.086;15.920;2023-02-28T10:16:35;49.33;48.32;50.73;;
17594;Laerm;8916;47.086;15.920;2023-02-28T10:19:10;49.33;48.26;50.56;;
17594;Laerm;8916;47.086;15.920;2023-02-28T10:21:47;49.34;48.21;50.53;;
17594;Laerm;8916;47.086;15.920;2023-02-28T10:24:29;49.33;48.34;50.42;;
17594;Laerm;8916;47.086;15.920;2023-02-28T10:27:09;49.34;48.18;50.38;;
17594;Laerm;8916;47.086;15.920;2023-02-28T10:29:44;49.34;48.21;50.50;;
17594;Laerm;8916;47.086;15.920;2023-02-28T10:32:18;49.33;48.15;50.49;;
17594;Laerm;8916;47.086;15.920;2023-02-28T10:34:51;49.33;48.29;50.66;;
17594;Laerm;8916;47.086;15.920;2023-02-28T10:37:21;49.34;48.23;50.44;;
17594;Laerm;8916;47.086;15.920;2023-02-28T10:39:50;49.34;48.18;50.38;;
17594;Laerm;8916;47.086;15.920;2023-02-28T10:42:23;49.34;48.25;50.51;;
17594;Laerm;8916;47.086;15.920;2023-02-28T10:45:11;49.33;48.26;50.44;;
17594;Laerm;8916;47.086;15.920;2023-02-28T10:47:54;49.33;48.15;50.55;;
17594;Laerm;8916;47.086;15.920;2023-02-28T10:50:37;49.32;48.15;50.53;;
17594;Laerm;8916;47.086;15.920;2023-02-28T10:53:34;49.32;48.18;50.48;;
17594;Laerm;8916;47.086;15.920;2023-02-28T10:56:24;49.32;48.13;50.32;;
17594;Laerm;8916;47.086;15.920;2023-02-28T10:58:56;49.33;48.29;50.51;;
17594;Laerm;8916;47.086;15.920;2023-02-28T11:01:41;49.32;48.29;50.35;;
17594;Laerm;8916;47.086;15.920;2023-02-28T11:04:31;49.33;48.02;50.56;;
17594;Laerm;8916;47.086;15.920;2023-02-28T11:07:06;49.34;48.25;50.54;;
17594;Laerm;8916;47.086;15.920;2023-02-28T11:09:39;49.34;48.13;50.29;;
17594;Laerm;8916;47.086;15.920;2023-02-28T11:12:21;49.33;48.22;50.36;;
17594;Laerm;8916;47.086;15.920;2023-02-28T11:14:53;49.33;48.32;50.44;;
17594;Laerm;8916;47.086;15.920;2023-02-28T11:17:26;49.33;48.16;50.34;;
17594;Laerm;8916;47.086;15.920;2023-02-28T11:19:59;49.32;48.29;50.36;;
17594;Laerm;8916;47.086;15.920;2023-02-28T11:22:33;49.33;48.31;50.55;;
17594;Laerm;8916;47.086;15.920;2023-02-28T11:25:10;49.32;48.15;50.41;;
17594;Laerm;8916;47.086;15.920;2023-02-28T11:27:50;49.32;48.12;50.39;;
17594;Laerm;8916;47.086;15.920;2023-02-28T11:30:32;49.32;48.34;50.48;;
17594;Laerm;8916;47.086;15.920;2023-02-28T11:33:23;49.31;48.23;50.40;;
17594;Laerm;8916;47.086;15.920;2023-02-28T11:36:00;49.31;48.25;50.40;;
17594;Laerm;8916;47.086;15.920;2023-02-28T11:38:34;49.30;48.20;50.35;;
17594;Laerm;8916;47.086;15.920;2023-02-28T11:41:43;49.31;48.13;50.47;;
17594;Laerm;8916;47.086;15.920;2023-02-28T11:44:29;49.30;48.18;50.64;;
17594;Laerm;8916;47.086;15.920;2023-02-28T11:47:09;49.30;48.34;50.44;;
17594;Laerm;8916;47.086;15.920;2023-02-28T11:49:49;49.29;48.21;50.45;;
17594;Laerm;8916;47.086;15.920;2023-02-28T11:52:35;49.29;48.29;50.51;;
17594;Laerm;8916;47.086;15.920;2023-02-28T11:55:16;49.28;48.23;50.42;;
17594;Laerm;8916;47.086;15.920;2023-02-28T11:58:21;49.28;48.20;50.46;;
17594;Laerm;8916;47.086;15.920;2023-02-28T12:01:10;49.27;48.23;50.40;;
17594;Laerm;8916;47.086;15.920;2023-02-28T12:03:58;49.26;48.18;50.55;;
17594;Laerm;8916;47.086;15.920;2023-02-28T12:06:38;49.25;48.08;50.29;;
17594;Laerm;8916;47.086;15.920;2023-02-28T12:09:27;49.26;48.23;50.46;;
17594;Laerm;8916;47.086;15.920;2023-02-28T12:12:04;49.25;48.26;50.43;;
17594;Laerm;8916;47.086;15.920;2023-02-28T12:14:57;49.25;48.31;50.52;;
17594;Laerm;8916;47.086;15.920;2023-02-28T12:17:46;49.26;48.23;50.56;;
17594;Laerm;8916;47.086;15.920;2023-02-28T12:20:28;49.27;48.13;50.44;;
17594;Laerm;8916;47.086;15.920;2023-02-28T12:23:19;49.26;48.31;50.32;;
17594;Laerm;8916;47.086;15.920;2023-02-28T12:26:02;49.25;48.16;50.32;;
17594;Laerm;8916;47.086;15.920;2023-02-28T12:28:37;49.25;48.13;50.20;;
17594;Laerm;8916;47.086;15.920;2023-02-28T12:31:12;49.25;47.93;50.47;;
17594;Laerm;8916;47.086;15.920;2023-02-28T12:33:47;49.25;48.12;50.34;;
17594;Laerm;8916;47.086;15.920;2023-02-28T12:36:19;49.24;48.05;50.21;;
17594;Laerm;8916;47.086;15.920;2023-02-28T12:38:55;49.24;48.16;50.47;;
17594;Laerm;8916;47.086;15.920;2023-02-28T12:41:36;49.23;48.05;50.30;;
17594;Laerm;8916;47.086;15.920;2023-02-28T12:44:13;49.24;47.98;50.37;;
17594;Laerm;8916;47.086;15.920;2023-02-28T12:46:48;49.24;47.98;50.39;;
17594;Laerm;8916;47.086;15.920;2023-02-28T12:49:23;49.23;48.00;50.55;;
17594;Laerm;8916;47.086;15.920;2023-02-28T12:51:55;49.22;47.93;50.50;;
17594;Laerm;8916;47.086;15.920;2023-02-28T12:54:29;49.21;48.18;50.50;;
17594;Laerm;8916;47.086;15.920;2023-02-28T12:57:09;49.21;48.03;50.17;;
17594;Laerm;8916;47.086;15.920;2023-02-28T12:59:45;49.20;48.02;50.44;;
17594;Laerm;8916;47.086;15.920;2023-02-28T13:02:51;49.20;48.02;50.35;;
17594;Laerm;8916;47.086;15.920;2023-02-28T13:05:50;49.17;48.07;50.32;;
17594;Laerm;8916;47.086;15.920;2023-02-28T13:08:47;49.17;48.12;50.97;;
17594;Laerm;8916;47.086;15.920;2023-02-28T13:11:29;49.15;47.95;50.33;;
17594;Laerm;8916;47.086;15.920;2023-02-28T13:14:03;49.16;48.08;50.44;;
17594;Laerm;8916;47.086;15.920;2023-02-28T13:17:02;49.17;47.95;50.25;;
17594;Laerm;8916;47.086;15.920;2023-02-28T13:19:34;49.17;48.05;50.40;;
17594;Laerm;8916;47.086;15.920;2023-02-28T13:22:05;49.19;48.08;50.19;;
17594;Laerm;8916;47.086;15.920;2023-02-28T13:24:49;49.20;48.12;50.29;;
17594;Laerm;8916;47.086;15.920;2023-02-28T13:27:35;49.22;48.08;50.29;;
17594;Laerm;8916;47.086;15.920;2023-02-28T13:31:02;49.23;48.00;50.23;;
17594;Laerm;8916;47.086;15.920;2023-02-28T13:33:32;49.24;47.98;50.47;;
17594;Laerm;8916;47.086;15.920;2023-02-28T13:36:25;49.25;48.12;50.58;;
17594;Laerm;8916;47.086;15.920;2023-02-28T13:38:55;49.25;48.21;50.30;;
17594;Laerm;8916;47.086;15.920;2023-02-28T13:41:46;49.23;48.29;50.23;;
17594;Laerm;8916;47.086;15.920;2023-02-28T13:44:18;49.23;48.13;50.29;;
17594;Laerm;8916;47.086;15.920;2023-02-28T13:47:25;49.23;47.88;50.25;;
17594;Laerm;8916;47.086;15.920;2023-02-28T13:50:15;49.22;48.07;50.37;;
17594;Laerm;8916;47.086;15.920;2023-02-28T13:55:46;49.21;48.12;50.47;;
17594;Laerm;8916;47.086;15.920;2023-02-28T13:58:34;49.20;48.10;50.41;;
17594;Laerm;8916;47.086;15.920;2023-02-28T14:01:28;49.21;48.00;50.27;;
17594;Laerm;8916;47.086;15.920;2023-02-28T14:07:06;49.20;47.96;50.39;;
17594;Laerm;8916;47.086;15.920;2023-02-28T14:09:39;49.19;48.12;50.41;;
17594;Laerm;8916;47.086;15.920;2023-02-28T14:12:59;49.18;47.91;50.33;;
17594;Laerm;8916;47.086;15.920;2023-02-28T14:15:47;49.14;48.00;50.37;;
17594;Laerm;8916;47.086;15.920;2023-02-28T14:18:29;49.11;48.08;50.44;;
17594;Laerm;8916;47.086;15.920;2023-02-28T14:21:20;49.06;47.93;50.18;;
17594;Laerm;8916;47.086;15.920;2023-02-28T14:24:20;49.05;47.93;50.25;;
17594;Laerm;8916;47.086;15.920;2023-02-28T14:27:09;49.04;47.68;50.29;;
17594;Laerm;8916;47.086;15.920;2023-02-28T14:30:37;49.00;47.74;50.21;;
17594;Laerm;8916;47.086;15.920;2023-02-28T14:33:48;49.01;47.70;50.12;;
17594;Laerm;8916;47.086;15.920;2023-02-28T14:36:33;49.03;48.08;50.29;;
17594;Laerm;8916;47.086;15.920;2023-02-28T14:39:07;49.09;47.91;50.22;;
17594;Laerm;8916;47.086;15.920;2023-02-28T14:41:38;49.15;48.07;50.25;;